sensor_id;sensor_type;location;lat;lon;timestamp;P1;durP1;ratioP1;P2;durP2;ratioP2
11287;SDS011;5700;50.996;7.044;2023-04-01T00:00:20;0.55;;;0.30;;
11287;SDS011;5700;50.996;7.044;2023-04-01T00:03:22;1.27;;;0.43;;
11287;SDS011;5700;50.996;7.044;2023-04-01T00:06:24;1.00;;;0.50;;
11287;SDS011;5700;50.996;7.044;2023-04-01T00:09:25;3.25;;;0.60;;
11287;SDS011;5700;50.996;7.044;2023-04-01T00:12:28;3.25;;;0.70;;
11287;SDS011;5700;50.996;7.044;2023-04-01T00:15:29;1.23;;;0.43;;
11287;SDS011;5700;50.996;7.044;2023-04-01T00:18:31;1.80;;;0.47;;
11287;SDS011;5700;50.996;7.044;2023-04-01T00:21:32;1.65;;;0.50;;
11287;SDS011;5700;50.996;7.044;2023-04-01T00:24:34;1.42;;;0.43;;
11287;SDS011;5700;50.996;7.044;2023-04-01T00:27:37;1.67;;;0.50;;
11287;SDS011;5700;50.996;7.044;2023-04-01T00:30:38;1.38;;;0.50;;
11287;SDS011;5700;50.996;7.044;2023-04-01T00:33:40;0.65;;;0.40;;
11287;SDS011;5700;50.996;7.044;2023-04-01T00:36:41;1.20;;;0.50;;
11287;SDS011;5700;50.996;7.044;2023-04-01T00:39:43;1.45;;;0.40;;
11287;SDS011;5700;50.996;7.044;2023-04-01T00:42:46;1.17;;;0.52;;
11287;SDS011;5700;50.996;7.044;2023-04-01T00:45:47;2.05;;;0.70;;
11287;SDS011;5700;50.996;7.044;2023-04-01T00:48:50;1.30;;;0.75;;
11287;SDS011;5700;50.996;7.044;2023-04-01T00:51:53;0.88;;;0.50;;
11287;SDS011;5700;50.996;7.044;2023-04-01T00:54:56;0.98;;;0.38;;
11287;SDS011;5700;50.996;7.044;2023-04-01T00:58:01;0.70;;;0.30;;
11287;SDS011;5700;50.996;7.044;2023-04-01T01:01:03;1.05;;;0.40;;
11287;SDS011;5700;50.996;7.044;2023-04-01T01:04:05;2.95;;;0.38;;
11287;SDS011;5700;50.996;7.044;2023-04-01T01:07:11;1.33;;;0.40;;
11287;SDS011;5700;50.996;7.044;2023-04-01T01:10:16;0.40;;;0.40;;
11287;SDS011;5700;50.996;7.044;2023-04-01T01:13:22;0.38;;;0.30;;
11287;SDS011;5700;50.996;7.044;2023-04-01T01:16:27;0.70;;;0.40;;
11287;SDS011;5700;50.996;7.044;2023-04-01T01:19:36;1.13;;;0.30;;
11287;SDS011;5700;50.996;7.044;2023-04-01T01:22:52;0.85;;;0.30;;
11287;SDS011;5700;50.996;7.044;2023-04-01T01:26:07;0.50;;;0.50;;
11287;SDS011;5700;50.996;7.044;2023-04-01T01:29:22;0.20;;;0.20;;
11287;SDS011;5700;50.996;7.044;2023-04-01T01:32:34;1.67;;;0.50;;
11287;SDS011;5700;50.996;7.044;2023-04-01T01:35:45;0.75;;;0.30;;
11287;SDS011;5700;50.996;7.044;2023-04-01T01:38:47;0.30;;;0.30;;
11287;SDS011;5700;50.996;7.044;2023-04-01T01:41:49;1.42;;;0.35;;
11287;SDS011;5700;50.996;7.044;2023-04-01T01:44:51;0.30;;;0.30;;
11287;SDS011;5700;50.996;7.044;2023-04-01T01:47:53;1.35;;;0.45;;
11287;SDS011;5700;50.996;7.044;2023-04-01T01:50:57;1.38;;;0.40;;
11287;SDS011;5700;50.996;7.044;2023-04-01T01:53:58;2.00;;;0.35;;
11287;SDS011;5700;50.996;7.044;2023-04-01T01:57:01;0.80;;;0.40;;
11287;SDS011;5700;50.996;7.044;2023-04-01T02:00:06;1.17;;;0.30;;
11287;SDS011;5700;50.996;7.044;2023-04-01T02:03:13;0.90;;;0.40;;
11287;SDS011;5700;50.996;7.044;2023-04-01T02:06:18;0.30;;;0.30;;
11287;SDS011;5700;50.996;7.044;2023-04-01T02:09:22;1.00;;;0.40;;
11287;SDS011;5700;50.996;7.044;2023-04-01T02:12:23;1.85;;;0.38;;
11287;SDS011;5700;50.996;7.044;2023-04-01T02:15:26;0.38;;;0.30;;
11287;SDS011;5700;50.996;7.044;2023-04-01T02:18:30;1.42;;;0.40;;
11287;SDS011;5700;50.996;7.044;2023-04-01T02:21:37;0.32;;;0.28;;
11287;SDS011;5700;50.996;7.044;2023-04-01T02:24:40;0.30;;;0.30;;
11287;SDS011;5700;50.996;7.044;2023-04-01T02:27:43;1.45;;;0.47;;
11287;SDS011;5700;50.996;7.044;2023-04-01T02:30:45;0.20;;;0.20;;
11287;SDS011;5700;50.996;7.044;2023-04-01T02:33:48;1.10;;;0.40;;
11287;SDS011;5700;50.996;7.044;2023-04-01T02:36:52;0.40;;;0.40;;
11287;SDS011;5700;50.996;7.044;2023-04-01T02:39:55;1.23;;;0.40;;
11287;SDS011;5700;50.996;7.044;2023-04-01T02:43:00;0.73;;;0.38;;
11287;SDS011;5700;50.996;7.044;2023-04-01T02:46:01;1.48;;;0.40;;
11287;SDS011;5700;50.996;7.044;2023-04-01T02:49:03;1.88;;;0.40;;
11287;SDS011;5700;50.996;7.044;2023-04-01T02:52:06;0.38;;;0.30;;
11287;SDS011;5700;50.996;7.044;2023-04-01T02:55:08;0.57;;;0.40;;
11287;SDS011;5700;50.996;7.044;2023-04-01T02:58:10;0.77;;;0.40;;
11287;SDS011;5700;50.996;7.044;2023-04-01T03:01:11;0.57;;;0.50;;
11287;SDS011;5700;50.996;7.044;2023-04-01T03:04:13;2.90;;;0.50;;
11287;SDS011;5700;50.996;7.044;2023-04-01T03:07:15;2.70;;;0.50;;
11287;SDS011;5700;50.996;7.044;2023-04-01T03:10:17;0.40;;;0.40;;
11287;SDS011;5700;50.996;7.044;2023-04-01T03:13:18;1.70;;;0.50;;
11287;SDS011;5700;50.996;7.044;2023-04-01T03:16:20;1.70;;;0.43;;
11287;SDS011;5700;50.996;7.044;2023-04-01T03:19:21;2.40;;;0.50;;
11287;SDS011;5700;50.996;7.044;2023-04-01T03:22:24;0.63;;;0.40;;
11287;SDS011;5700;50.996;7.044;2023-04-01T03:25:25;2.38;;;0.57;;
11287;SDS011;5700;50.996;7.044;2023-04-01T03:28:28;1.77;;;0.73;;
11287;SDS011;5700;50.996;7.044;2023-04-01T03:31:30;1.67;;;0.60;;
11287;SDS011;5700;50.996;7.044;2023-04-01T03:34:31;2.53;;;0.80;;
11287;SDS011;5700;50.996;7.044;2023-04-01T03:37:34;1.52;;;0.75;;
11287;SDS011;5700;50.996;7.044;2023-04-01T03:40:35;0.80;;;0.50;;
11287;SDS011;5700;50.996;7.044;2023-04-01T03:43:38;1.52;;;0.70;;
11287;SDS011;5700;50.996;7.044;2023-04-01T03:46:39;0.98;;;0.47;;
11287;SDS011;5700;50.996;7.044;2023-04-01T03:49:41;0.80;;;0.40;;
11287;SDS011;5700;50.996;7.044;2023-04-01T03:52:44;0.73;;;0.35;;
11287;SDS011;5700;50.996;7.044;2023-04-01T03:55:45;0.25;;;0.25;;
11287;SDS011;5700;50.996;7.044;2023-04-01T03:58:47;1.48;;;0.40;;
11287;SDS011;5700;50.996;7.044;2023-04-01T04:01:49;0.40;;;0.40;;
11287;SDS011;5700;50.996;7.044;2023-04-01T04:04:50;1.75;;;0.38;;
11287;SDS011;5700;50.996;7.044;2023-04-01T04:07:53;1.00;;;0.52;;
11287;SDS011;5700;50.996;7.044;2023-04-01T04:10:54;1.65;;;0.50;;
11287;SDS011;5700;50.996;7.044;2023-04-01T04:13:56;0.82;;;0.32;;
11287;SDS011;5700;50.996;7.044;2023-04-01T04:16:58;0.80;;;0.43;;
11287;SDS011;5700;50.996;7.044;2023-04-01T04:19:59;0.75;;;0.43;;
11287;SDS011;5700;50.996;7.044;2023-04-01T04:23:02;0.50;;;0.40;;
11287;SDS011;5700;50.996;7.044;2023-04-01T04:26:05;1.13;;;0.50;;
11287;SDS011;5700;50.996;7.044;2023-04-01T04:29:07;0.30;;;0.30;;
11287;SDS011;5700;50.996;7.044;2023-04-01T04:32:09;0.50;;;0.47;;
11287;SDS011;5700;50.996;7.044;2023-04-01T04:35:10;0.30;;;0.30;;
11287;SDS011;5700;50.996;7.044;2023-04-01T04:38:13;1.65;;;0.35;;
11287;SDS011;5700;50.996;7.044;2023-04-01T04:41:15;0.32;;;0.30;;
11287;SDS011;5700;50.996;7.044;2023-04-01T04:44:18;0.50;;;0.32;;
11287;SDS011;5700;50.996;7.044;2023-04-01T04:47:20;0.50;;;0.30;;
11287;SDS011;5700;50.996;7.044;2023-04-01T04:50:21;0.30;;;0.30;;
11287;SDS011;5700;50.996;7.044;2023-04-01T04:53:25;1.10;;;0.30;;
11287;SDS011;5700;50.996;7.044;2023-04-01T04:56:26;0.38;;;0.32;;
11287;SDS011;5700;50.996;7.044;2023-04-01T04:59:27;0.98;;;0.60;;
11287;SDS011;5700;50.996;7.044;2023-04-01T05:02:29;0.20;;;0.20;;
11287;SDS011;5700;50.996;7.044;2023-04-01T05:05:30;1.48;;;0.30;;
11287;SDS011;5700;50.996;7.044;2023-04-01T05:08:33;0.65;;;0.40;;
11287;SDS011;5700;50.996;7.044;2023-04-01T05:11:34;1.17;;;0.30;;
11287;SDS011;5700;50.996;7.044;2023-04-01T05:14:36;0.20;;;0.20;;
11287;SDS011;5700;50.996;7.044;2023-04-01T05:17:38;0.28;;;0.28;;
11287;SDS011;5700;50.996;7.044;2023-04-01T05:20:39;0.30;;;0.30;;
11287;SDS011;5700;50.996;7.044;2023-04-01T05:23:47;0.45;;;0.40;;
11287;SDS011;5700;50.996;7.044;2023-04-01T05:26:48;1.65;;;0.50;;
11287;SDS011;5700;50.996;7.044;2023-04-01T05:29:50;0.20;;;0.20;;
11287;SDS011;5700;50.996;7.044;2023-04-01T05:32:51;0.30;;;0.30;;
11287;SDS011;5700;50.996;7.044;2023-04-01T05:35:53;0.30;;;0.30;;
11287;SDS011;5700;50.996;7.044;2023-04-01T05:38:56;2.47;;;0.60;;
11287;SDS011;5700;50.996;7.044;2023-04-01T05:41:57;1.38;;;0.70;;
11287;SDS011;5700;50.996;7.044;2023-04-01T05:44:58;0.77;;;0.45;;
11287;SDS011;5700;50.996;7.044;2023-04-01T05:48:00;0.40;;;0.40;;
11287;SDS011;5700;50.996;7.044;2023-04-01T05:51:01;1.35;;;0.40;;
11287;SDS011;5700;50.996;7.044;2023-04-01T05:54:05;1.00;;;0.40;;
11287;SDS011;5700;50.996;7.044;2023-04-01T05:57:06;0.93;;;0.50;;
11287;SDS011;5700;50.996;7.044;2023-04-01T06:00:08;0.43;;;0.43;;
11287;SDS011;5700;50.996;7.044;2023-04-01T06:03:10;1.13;;;0.60;;
11287;SDS011;5700;50.996;7.044;2023-04-01T06:06:13;0.77;;;0.40;;
11287;SDS011;5700;50.996;7.044;2023-04-01T06:09:17;0.77;;;0.50;;
11287;SDS011;5700;50.996;7.044;2023-04-01T06:15:40;0.52;;;0.40;;
11287;SDS011;5700;50.996;7.044;2023-04-01T06:18:50;0.82;;;0.38;;
11287;SDS011;5700;50.996;7.044;2023-04-01T06:22:02;0.82;;;0.40;;
11287;SDS011;5700;50.996;7.044;2023-04-01T06:25:16;0.47;;;0.47;;
11287;SDS011;5700;50.996;7.044;2023-04-01T06:31:46;1.52;;;0.70;;
11287;SDS011;5700;50.996;7.044;2023-04-01T06:34:57;0.70;;;0.60;;
11287;SDS011;5700;50.996;7.044;2023-04-01T06:38:10;1.10;;;0.80;;
11287;SDS011;5700;50.996;7.044;2023-04-01T06:41:23;0.60;;;0.60;;
11287;SDS011;5700;50.996;7.044;2023-04-01T06:44:34;0.82;;;0.60;;
11287;SDS011;5700;50.996;7.044;2023-04-01T06:47:44;0.65;;;0.55;;
11287;SDS011;5700;50.996;7.044;2023-04-01T06:50:55;0.63;;;0.60;;
11287;SDS011;5700;50.996;7.044;2023-04-01T06:54:01;1.33;;;0.60;;
11287;SDS011;5700;50.996;7.044;2023-04-01T06:57:10;1.77;;;0.90;;
11287;SDS011;5700;50.996;7.044;2023-04-01T07:00:25;3.95;;;0.90;;
11287;SDS011;5700;50.996;7.044;2023-04-01T07:03:29;1.38;;;0.90;;
11287;SDS011;5700;50.996;7.044;2023-04-01T07:06:35;0.85;;;0.73;;
11287;SDS011;5700;50.996;7.044;2023-04-01T07:09:38;1.17;;;0.70;;
11287;SDS011;5700;50.996;7.044;2023-04-01T07:12:45;2.05;;;0.90;;
11287;SDS011;5700;50.996;7.044;2023-04-01T07:15:50;2.08;;;0.73;;
11287;SDS011;5700;50.996;7.044;2023-04-01T07:18:57;1.30;;;1.00;;
11287;SDS011;5700;50.996;7.044;2023-04-01T07:22:03;3.33;;;0.98;;
11287;SDS011;5700;50.996;7.044;2023-04-01T07:25:11;3.28;;;0.73;;
11287;SDS011;5700;50.996;7.044;2023-04-01T07:28:15;2.50;;;0.82;;
11287;SDS011;5700;50.996;7.044;2023-04-01T07:31:20;1.02;;;0.95;;
11287;SDS011;5700;50.996;7.044;2023-04-01T07:34:30;3.00;;;1.10;;
11287;SDS011;5700;50.996;7.044;2023-04-01T07:37:37;1.98;;;1.00;;
11287;SDS011;5700;50.996;7.044;2023-04-01T07:40:45;2.08;;;1.17;;
11287;SDS011;5700;50.996;7.044;2023-04-01T07:43:53;2.03;;;1.05;;
11287;SDS011;5700;50.996;7.044;2023-04-01T07:47:06;4.00;;;1.13;;
11287;SDS011;5700;50.996;7.044;2023-04-01T07:50:16;3.58;;;1.20;;
11287;SDS011;5700;50.996;7.044;2023-04-01T07:53:22;1.67;;;0.98;;
11287;SDS011;5700;50.996;7.044;2023-04-01T07:56:27;2.08;;;1.00;;
11287;SDS011;5700;50.996;7.044;2023-04-01T07:59:34;1.73;;;1.13;;
11287;SDS011;5700;50.996;7.044;2023-04-01T08:02:48;2.40;;;1.10;;
11287;SDS011;5700;50.996;7.044;2023-04-01T08:06:02;1.67;;;0.90;;
11287;SDS011;5700;50.996;7.044;2023-04-01T08:09:09;1.55;;;0.75;;
11287;SDS011;5700;50.996;7.044;2023-04-01T08:12:18;1.98;;;1.02;;
11287;SDS011;5700;50.996;7.044;2023-04-01T08:15:28;1.00;;;0.75;;
11287;SDS011;5700;50.996;7.044;2023-04-01T08:18:35;1.52;;;0.63;;
11287;SDS011;5700;50.996;7.044;2023-04-01T08:21:41;1.52;;;0.88;;
11287;SDS011;5700;50.996;7.044;2023-04-01T08:24:44;2.28;;;1.00;;
11287;SDS011;5700;50.996;7.044;2023-04-01T08:27:47;1.15;;;0.93;;
11287;SDS011;5700;50.996;7.044;2023-04-01T08:30:52;2.90;;;1.00;;
11287;SDS011;5700;50.996;7.044;2023-04-01T08:33:56;2.63;;;0.90;;
11287;SDS011;5700;50.996;7.044;2023-04-01T08:36:58;2.42;;;0.98;;
11287;SDS011;5700;50.996;7.044;2023-04-01T08:40:02;0.77;;;0.65;;
11287;SDS011;5700;50.996;7.044;2023-04-01T08:43:37;1.23;;;0.73;;
11287;SDS011;5700;50.996;7.044;2023-04-01T08:46:56;1.27;;;0.70;;
11287;SDS011;5700;50.996;7.044;2023-04-01T08:50:12;1.40;;;0.70;;
11287;SDS011;5700;50.996;7.044;2023-04-01T08:53:40;1.27;;;0.80;;
11287;SDS011;5700;50.996;7.044;2023-04-01T08:56:50;0.90;;;0.70;;
11287;SDS011;5700;50.996;7.044;2023-04-01T08:59:57;1.00;;;0.80;;
11287;SDS011;5700;50.996;7.044;2023-04-01T09:06:39;1.83;;;1.08;;
11287;SDS011;5700;50.996;7.044;2023-04-01T09:09:50;1.38;;;0.98;;
11287;SDS011;5700;50.996;7.044;2023-04-01T09:13:05;1.13;;;0.98;;
11287;SDS011;5700;50.996;7.044;2023-04-01T09:16:18;1.52;;;1.02;;
11287;SDS011;5700;50.996;7.044;2023-04-01T09:19:28;0.77;;;0.60;;
11287;SDS011;5700;50.996;7.044;2023-04-01T09:22:39;0.60;;;0.50;;
11287;SDS011;5700;50.996;7.044;2023-04-01T09:25:52;0.60;;;0.60;;
11287;SDS011;5700;50.996;7.044;2023-04-01T09:29:02;0.77;;;0.50;;
11287;SDS011;5700;50.996;7.044;2023-04-01T09:32:14;1.00;;;0.60;;
11287;SDS011;5700;50.996;7.044;2023-04-01T09:35:36;0.93;;;0.70;;
11287;SDS011;5700;50.996;7.044;2023-04-01T09:38:46;0.80;;;0.70;;
11287;SDS011;5700;50.996;7.044;2023-04-01T09:41:57;2.85;;;0.80;;
11287;SDS011;5700;50.996;7.044;2023-04-01T09:45:09;0.47;;;0.45;;
11287;SDS011;5700;50.996;7.044;2023-04-01T09:48:21;2.63;;;0.98;;
11287;SDS011;5700;50.996;7.044;2023-04-01T09:51:33;1.92;;;1.05;;
11287;SDS011;5700;50.996;7.044;2023-04-01T09:54:45;0.98;;;0.68;;
11287;SDS011;5700;50.996;7.044;2023-04-01T09:58:01;1.08;;;0.90;;
11287;SDS011;5700;50.996;7.044;2023-04-01T10:01:16;2.17;;;0.90;;
11287;SDS011;5700;50.996;7.044;2023-04-01T10:04:45;1.52;;;1.05;;
11287;SDS011;5700;50.996;7.044;2023-04-01T10:08:05;1.60;;;1.15;;
11287;SDS011;5700;50.996;7.044;2023-04-01T10:11:23;1.90;;;1.38;;
11287;SDS011;5700;50.996;7.044;2023-04-01T10:18:05;1.58;;;1.15;;
11287;SDS011;5700;50.996;7.044;2023-04-01T10:24:55;2.38;;;1.25;;
11287;SDS011;5700;50.996;7.044;2023-04-01T10:31:35;4.43;;;1.58;;
11287;SDS011;5700;50.996;7.044;2023-04-01T10:34:54;1.45;;;0.95;;
11287;SDS011;5700;50.996;7.044;2023-04-01T10:38:15;1.85;;;1.10;;
11287;SDS011;5700;50.996;7.044;2023-04-01T10:41:32;1.10;;;1.00;;
11287;SDS011;5700;50.996;7.044;2023-04-01T10:51:37;2.53;;;1.45;;
11287;SDS011;5700;50.996;7.044;2023-04-01T10:54:55;1.95;;;1.38;;
11287;SDS011;5700;50.996;7.044;2023-04-01T10:58:11;1.83;;;1.40;;
11287;SDS011;5700;50.996;7.044;2023-04-01T11:01:24;2.85;;;1.73;;
11287;SDS011;5700;50.996;7.044;2023-04-01T11:04:49;4.10;;;1.60;;
11287;SDS011;5700;50.996;7.044;2023-04-01T11:11:47;3.05;;;1.52;;
11287;SDS011;5700;50.996;7.044;2023-04-01T11:18:31;2.35;;;1.50;;
11287;SDS011;5700;50.996;7.044;2023-04-01T11:21:57;2.33;;;1.60;;
11287;SDS011;5700;50.996;7.044;2023-04-01T11:25:12;2.33;;;1.67;;
11287;SDS011;5700;50.996;7.044;2023-04-01T11:28:24;1.33;;;1.13;;
11287;SDS011;5700;50.996;7.044;2023-04-01T11:31:37;2.50;;;1.50;;
11287;SDS011;5700;50.996;7.044;2023-04-01T11:34:50;2.50;;;1.60;;
11287;SDS011;5700;50.996;7.044;2023-04-01T11:37:58;3.20;;;1.40;;
11287;SDS011;5700;50.996;7.044;2023-04-01T11:41:07;2.90;;;1.70;;
11287;SDS011;5700;50.996;7.044;2023-04-01T11:44:18;3.00;;;1.60;;
11287;SDS011;5700;50.996;7.044;2023-04-01T11:47:30;2.20;;;1.50;;
11287;SDS011;5700;50.996;7.044;2023-04-01T11:50:53;3.05;;;1.45;;
11287;SDS011;5700;50.996;7.044;2023-04-01T11:54:03;2.70;;;1.40;;
11287;SDS011;5700;50.996;7.044;2023-04-01T11:57:12;2.08;;;1.63;;
11287;SDS011;5700;50.996;7.044;2023-04-01T12:00:25;3.38;;;1.50;;
11287;SDS011;5700;50.996;7.044;2023-04-01T12:03:43;1.83;;;1.38;;
11287;SDS011;5700;50.996;7.044;2023-04-01T12:06:54;1.23;;;1.13;;
11287;SDS011;5700;50.996;7.044;2023-04-01T12:10:05;1.45;;;1.05;;
11287;SDS011;5700;50.996;7.044;2023-04-01T12:13:20;1.80;;;1.17;;
11287;SDS011;5700;50.996;7.044;2023-04-01T12:16:36;1.27;;;1.05;;
11287;SDS011;5700;50.996;7.044;2023-04-01T12:19:43;1.13;;;1.00;;
11287;SDS011;5700;50.996;7.044;2023-04-01T12:22:53;1.80;;;1.10;;
11287;SDS011;5700;50.996;7.044;2023-04-01T12:26:01;1.65;;;1.02;;
11287;SDS011;5700;50.996;7.044;2023-04-01T12:29:12;1.25;;;0.85;;
11287;SDS011;5700;50.996;7.044;2023-04-01T12:32:23;2.10;;;1.13;;
11287;SDS011;5700;50.996;7.044;2023-04-01T12:35:35;1.40;;;1.00;;
11287;SDS011;5700;50.996;7.044;2023-04-01T12:38:51;1.20;;;1.00;;
11287;SDS011;5700;50.996;7.044;2023-04-01T12:42:03;0.93;;;0.80;;
11287;SDS011;5700;50.996;7.044;2023-04-01T12:45:15;0.95;;;0.90;;
11287;SDS011;5700;50.996;7.044;2023-04-01T12:48:27;1.63;;;1.20;;
11287;SDS011;5700;50.996;7.044;2023-04-01T12:58:25;1.75;;;1.10;;
11287;SDS011;5700;50.996;7.044;2023-04-01T13:01:51;1.45;;;1.10;;
11287;SDS011;5700;50.996;7.044;2023-04-01T13:05:01;1.40;;;1.00;;
11287;SDS011;5700;50.996;7.044;2023-04-01T13:08:20;1.48;;;1.20;;
11287;SDS011;5700;50.996;7.044;2023-04-01T13:11:34;1.67;;;1.20;;
11287;SDS011;5700;50.996;7.044;2023-04-01T13:14:50;2.30;;;1.42;;
11287;SDS011;5700;50.996;7.044;2023-04-01T13:18:02;2.15;;;1.50;;
11287;SDS011;5700;50.996;7.044;2023-04-01T13:21:12;1.70;;;1.30;;
11287;SDS011;5700;50.996;7.044;2023-04-01T13:24:22;1.98;;;1.30;;
11287;SDS011;5700;50.996;7.044;2023-04-01T13:27:30;1.10;;;1.00;;
11287;SDS011;5700;50.996;7.044;2023-04-01T13:30:37;1.48;;;1.15;;
11287;SDS011;5700;50.996;7.044;2023-04-01T13:33:42;2.55;;;1.20;;
11287;SDS011;5700;50.996;7.044;2023-04-01T13:36:50;1.00;;;0.90;;
11287;SDS011;5700;50.996;7.044;2023-04-01T13:40:03;0.98;;;0.80;;
11287;SDS011;5700;50.996;7.044;2023-04-01T13:43:18;1.98;;;1.27;;
11287;SDS011;5700;50.996;7.044;2023-04-01T13:49:46;1.60;;;0.95;;
11287;SDS011;5700;50.996;7.044;2023-04-01T13:53:03;2.58;;;1.23;;
11287;SDS011;5700;50.996;7.044;2023-04-01T13:56:12;1.95;;;1.17;;
11287;SDS011;5700;50.996;7.044;2023-04-01T13:59:25;1.30;;;0.88;;
11287;SDS011;5700;50.996;7.044;2023-04-01T14:02:40;2.30;;;1.20;;
11287;SDS011;5700;50.996;7.044;2023-04-01T14:05:50;2.25;;;1.27;;
11287;SDS011;5700;50.996;7.044;2023-04-01T14:09:03;1.83;;;1.45;;
11287;SDS011;5700;50.996;7.044;2023-04-01T14:12:26;5.82;;;1.80;;
11287;SDS011;5700;50.996;7.044;2023-04-01T14:15:39;2.47;;;1.80;;
11287;SDS011;5700;50.996;7.044;2023-04-01T14:18:47;3.63;;;1.92;;
11287;SDS011;5700;50.996;7.044;2023-04-01T14:21:56;3.28;;;1.95;;
11287;SDS011;5700;50.996;7.044;2023-04-01T14:25:10;2.72;;;1.85;;
11287;SDS011;5700;50.996;7.044;2023-04-01T14:28:25;3.70;;;1.70;;
11287;SDS011;5700;50.996;7.044;2023-04-01T14:31:35;2.95;;;1.95;;
11287;SDS011;5700;50.996;7.044;2023-04-01T14:34:45;3.33;;;1.90;;
11287;SDS011;5700;50.996;7.044;2023-04-01T14:38:02;3.22;;;2.00;;
11287;SDS011;5700;50.996;7.044;2023-04-01T14:41:13;4.15;;;2.33;;
11287;SDS011;5700;50.996;7.044;2023-04-01T14:47:47;3.65;;;2.35;;
11287;SDS011;5700;50.996;7.044;2023-04-01T14:50:51;4.50;;;2.20;;
11287;SDS011;5700;50.996;7.044;2023-04-01T14:53:58;4.80;;;2.85;;
11287;SDS011;5700;50.996;7.044;2023-04-01T14:57:04;4.18;;;2.35;;
11287;SDS011;5700;50.996;7.044;2023-04-01T15:00:13;4.72;;;2.30;;
11287;SDS011;5700;50.996;7.044;2023-04-01T15:03:18;4.97;;;2.60;;
11287;SDS011;5700;50.996;7.044;2023-04-01T15:06:31;4.25;;;2.35;;
11287;SDS011;5700;50.996;7.044;2023-04-01T15:09:40;6.13;;;2.92;;
11287;SDS011;5700;50.996;7.044;2023-04-01T15:12:49;5.50;;;2.75;;
11287;SDS011;5700;50.996;7.044;2023-04-01T15:15:58;5.35;;;3.10;;
11287;SDS011;5700;50.996;7.044;2023-04-01T15:19:12;7.78;;;3.30;;
11287;SDS011;5700;50.996;7.044;2023-04-01T15:22:24;5.65;;;3.00;;
11287;SDS011;5700;50.996;7.044;2023-04-01T15:25:37;4.95;;;2.80;;
11287;SDS011;5700;50.996;7.044;2023-04-01T15:28:49;5.18;;;2.97;;
11287;SDS011;5700;50.996;7.044;2023-04-01T15:31:59;6.32;;;3.20;;
11287;SDS011;5700;50.996;7.044;2023-04-01T15:35:09;6.43;;;3.25;;
11287;SDS011;5700;50.996;7.044;2023-04-01T15:38:19;5.38;;;2.97;;
11287;SDS011;5700;50.996;7.044;2023-04-01T15:41:28;5.18;;;2.88;;
11287;SDS011;5700;50.996;7.044;2023-04-01T15:44:42;4.22;;;2.47;;
11287;SDS011;5700;50.996;7.044;2023-04-01T15:47:53;5.10;;;2.78;;
11287;SDS011;5700;50.996;7.044;2023-04-01T15:51:09;4.40;;;2.30;;
11287;SDS011;5700;50.996;7.044;2023-04-01T15:54:22;5.38;;;2.88;;
11287;SDS011;5700;50.996;7.044;2023-04-01T15:57:28;4.65;;;2.65;;
11287;SDS011;5700;50.996;7.044;2023-04-01T16:00:32;5.93;;;3.05;;
11287;SDS011;5700;50.996;7.044;2023-04-01T16:03:45;5.50;;;2.85;;
11287;SDS011;5700;50.996;7.044;2023-04-01T16:06:56;5.47;;;2.78;;
11287;SDS011;5700;50.996;7.044;2023-04-01T16:10:06;5.53;;;3.03;;
11287;SDS011;5700;50.996;7.044;2023-04-01T16:13:19;5.40;;;3.67;;
11287;SDS011;5700;50.996;7.044;2023-04-01T16:16:28;5.55;;;3.17;;
11287;SDS011;5700;50.996;7.044;2023-04-01T16:19:37;6.07;;;2.92;;
11287;SDS011;5700;50.996;7.044;2023-04-01T16:22:46;6.22;;;3.33;;
11287;SDS011;5700;50.996;7.044;2023-04-01T16:25:51;4.68;;;2.65;;
11287;SDS011;5700;50.996;7.044;2023-04-01T16:28:57;4.85;;;3.08;;
11287;SDS011;5700;50.996;7.044;2023-04-01T16:32:13;5.22;;;2.80;;
11287;SDS011;5700;50.996;7.044;2023-04-01T16:35:22;7.45;;;3.88;;
11287;SDS011;5700;50.996;7.044;2023-04-01T16:38:33;4.80;;;2.53;;
11287;SDS011;5700;50.996;7.044;2023-04-01T16:41:38;7.47;;;3.10;;
11287;SDS011;5700;50.996;7.044;2023-04-01T16:44:46;5.82;;;3.28;;
11287;SDS011;5700;50.996;7.044;2023-04-01T16:47:51;7.45;;;2.95;;
11287;SDS011;5700;50.996;7.044;2023-04-01T16:50:58;4.70;;;2.90;;
11287;SDS011;5700;50.996;7.044;2023-04-01T16:54:04;6.20;;;2.90;;
11287;SDS011;5700;50.996;7.044;2023-04-01T16:57:13;5.65;;;2.78;;
11287;SDS011;5700;50.996;7.044;2023-04-01T17:00:23;4.93;;;2.53;;
11287;SDS011;5700;50.996;7.044;2023-04-01T17:03:28;4.07;;;2.40;;
11287;SDS011;5700;50.996;7.044;2023-04-01T17:06:33;5.97;;;2.78;;
11287;SDS011;5700;50.996;7.044;2023-04-01T17:09:44;5.10;;;2.92;;
11287;SDS011;5700;50.996;7.044;2023-04-01T17:12:55;5.53;;;2.70;;
11287;SDS011;5700;50.996;7.044;2023-04-01T17:16:11;5.07;;;2.72;;
11287;SDS011;5700;50.996;7.044;2023-04-01T17:19:25;4.28;;;2.10;;
11287;SDS011;5700;50.996;7.044;2023-04-01T17:22:37;4.80;;;3.05;;
11287;SDS011;5700;50.996;7.044;2023-04-01T17:25:48;4.55;;;2.53;;
11287;SDS011;5700;50.996;7.044;2023-04-01T17:28:57;4.75;;;2.47;;
11287;SDS011;5700;50.996;7.044;2023-04-01T17:32:02;4.78;;;2.58;;
11287;SDS011;5700;50.996;7.044;2023-04-01T17:35:08;3.78;;;2.38;;
11287;SDS011;5700;50.996;7.044;2023-04-01T17:38:16;4.53;;;2.65;;
11287;SDS011;5700;50.996;7.044;2023-04-01T17:41:28;3.17;;;1.92;;
11287;SDS011;5700;50.996;7.044;2023-04-01T17:44:35;4.07;;;2.15;;
11287;SDS011;5700;50.996;7.044;2023-04-01T17:47:46;5.63;;;2.92;;
11287;SDS011;5700;50.996;7.044;2023-04-01T17:50:59;3.75;;;2.28;;
11287;SDS011;5700;50.996;7.044;2023-04-01T17:54:14;5.97;;;2.78;;
11287;SDS011;5700;50.996;7.044;2023-04-01T17:57:27;5.30;;;2.78;;
11287;SDS011;5700;50.996;7.044;2023-04-01T18:00:36;4.75;;;2.67;;
11287;SDS011;5700;50.996;7.044;2023-04-01T18:03:46;4.70;;;2.60;;
11287;SDS011;5700;50.996;7.044;2023-04-01T18:07:01;4.57;;;2.72;;
11287;SDS011;5700;50.996;7.044;2023-04-01T18:10:13;4.53;;;2.65;;
11287;SDS011;5700;50.996;7.044;2023-04-01T18:13:27;5.30;;;2.90;;
11287;SDS011;5700;50.996;7.044;2023-04-01T18:16:39;5.40;;;2.95;;
11287;SDS011;5700;50.996;7.044;2023-04-01T18:19:51;5.45;;;3.00;;
11287;SDS011;5700;50.996;7.044;2023-04-01T18:23:00;7.05;;;3.72;;
11287;SDS011;5700;50.996;7.044;2023-04-01T18:26:05;7.50;;;4.22;;
11287;SDS011;5700;50.996;7.044;2023-04-01T18:29:13;8.80;;;4.60;;
11287;SDS011;5700;50.996;7.044;2023-04-01T18:32:26;7.03;;;3.75;;
11287;SDS011;5700;50.996;7.044;2023-04-01T18:35:34;7.80;;;4.65;;
11287;SDS011;5700;50.996;7.044;2023-04-01T18:38:49;8.45;;;4.30;;
11287;SDS011;5700;50.996;7.044;2023-04-01T18:41:53;7.95;;;4.30;;
11287;SDS011;5700;50.996;7.044;2023-04-01T18:45:01;7.28;;;4.18;;
11287;SDS011;5700;50.996;7.044;2023-04-01T18:48:14;6.97;;;4.18;;
11287;SDS011;5700;50.996;7.044;2023-04-01T18:51:20;6.95;;;3.90;;
11287;SDS011;5700;50.996;7.044;2023-04-01T18:54:23;7.75;;;4.38;;
11287;SDS011;5700;50.996;7.044;2023-04-01T18:57:28;8.13;;;4.15;;
11287;SDS011;5700;50.996;7.044;2023-04-01T19:00:43;7.82;;;4.50;;
11287;SDS011;5700;50.996;7.044;2023-04-01T19:03:52;7.13;;;4.28;;
11287;SDS011;5700;50.996;7.044;2023-04-01T19:06:58;6.32;;;4.03;;
11287;SDS011;5700;50.996;7.044;2023-04-01T19:10:07;7.03;;;4.07;;
11287;SDS011;5700;50.996;7.044;2023-04-01T19:13:16;6.22;;;4.20;;
11287;SDS011;5700;50.996;7.044;2023-04-01T19:16:24;9.75;;;4.18;;
11287;SDS011;5700;50.996;7.044;2023-04-01T19:19:38;5.93;;;3.60;;
11287;SDS011;5700;50.996;7.044;2023-04-01T19:22:52;6.03;;;3.58;;
11287;SDS011;5700;50.996;7.044;2023-04-01T19:26:10;4.85;;;3.38;;
11287;SDS011;5700;50.996;7.044;2023-04-01T19:29:17;5.63;;;3.08;;
11287;SDS011;5700;50.996;7.044;2023-04-01T19:32:32;5.90;;;3.63;;
11287;SDS011;5700;50.996;7.044;2023-04-01T19:35:40;5.13;;;3.00;;
11287;SDS011;5700;50.996;7.044;2023-04-01T19:38:50;5.95;;;3.28;;
11287;SDS011;5700;50.996;7.044;2023-04-01T19:41:55;7.75;;;3.28;;
11287;SDS011;5700;50.996;7.044;2023-04-01T19:45:07;6.40;;;3.60;;
11287;SDS011;5700;50.996;7.044;2023-04-01T19:48:27;5.85;;;3.22;;
11287;SDS011;5700;50.996;7.044;2023-04-01T19:51:39;6.97;;;3.35;;
11287;SDS011;5700;50.996;7.044;2023-04-01T19:54:45;5.68;;;3.20;;
11287;SDS011;5700;50.996;7.044;2023-04-01T19:57:52;5.15;;;3.13;;